Ems Pull — CQJD — position and weather

sailwx.info

Track history (hours):
 
Tides and Currents Weather Stations Pressure Air Temp Water Temp Dewpoint Dewpoint Depression Visibility Wind Speed Wind Dir Waves Ship Positions

Ems Pull

Last reported at 2018-Jul-20 16:21 UTC. Time now 2018-Jul-20 16:30 UTC.
Position N 53°21' E 007°12'.

Length 26 m; draft 4.2 m.

Type: Towing. MMSI: 255805540.

Date/timePositionNaut miles runAvg speedWind from/ knotsBaromVisibWave heightAir tempDewpointWater temp
2018-Jul-20 16:21N 53°21' E 007°12'0 0.0
2018-Jul-20 16:00N 53°21' E 007°12'0 0.0
2018-Jul-20 15:27N 53°21' E 007°12'0 0.0
2018-Jul-20 15:00N 53°21' E 007°12'0 0.0
2018-Jul-20 14:22N 53°21' E 007°12'0 0.0
2018-Jul-20 13:31N 53°21' E 007°12'0 0.0
2018-Jul-20 13:25N 53°21' E 007°12'0 0.0
2018-Jul-20 12:01N 53°21' E 007°12'0 0.0
2018-Jul-20 11:49N 53°21' E 007°12'0 0.0
2018-Jul-20 11:28N 53°21' E 007°12'0 0.0
2018-Jul-20 10:58N 53°21' E 007°12'0 0.0
2018-Jul-20 10:28N 53°21' E 007°12'0 0.0
2018-Jul-20 09:58N 53°21' E 007°12'0 0.0
2018-Jul-20 05:35N 53°21' E 007°12'0 0.0
2018-Jul-20 03:49N 53°21' E 007°12'0 0.0
2018-Jul-20 03:28N 53°21' E 007°12'0 0.0
2018-Jul-20 02:37N 53°21' E 007°12'0 0.0
2018-Jul-20 02:25N 53°21' E 007°12'0 0.0
2018-Jul-19 20:16N 53°21' E 007°12'0 0.2
2018-Jul-19 19:58N 53°21' E 007°12'1 1.4
2018-Jul-19 19:16N 53°20' E 007°11'2 5.6
2018-Jul-19 18:54N 53°20' E 007°14'4 9.3
2018-Jul-19 18:30N 53°19' E 007°20'10 6.3
2018-Jul-19 16:56N 53°09' E 007°23'3 0.3
2018-Jul-19 07:16N 53°06' E 007°22'0 0.0
2018-Jul-19 07:00N 53°06' E 007°22'0 0.0
2018-Jul-19 06:30N 53°06' E 007°22'0 0.0
2018-Jul-19 06:00N 53°06' E 007°22'0 0.0
2018-Jul-19 05:30N 53°06' E 007°22'0 0.0
2018-Jul-19 05:00N 53°06' E 007°22'0 0.0
2018-Jul-19 04:30N 53°06' E 007°22'0 0.0
2018-Jul-19 04:00N 53°06' E 007°22'0 0.0
2018-Jul-19 03:30N 53°06' E 007°22'0 0.0
2018-Jul-19 02:59N 53°06' E 007°22'0 0.0
2018-Jul-19 02:30N 53°06' E 007°22'0 0.1
2018-Jul-19 02:00N 53°06' E 007°22'0 0.1
2018-Jul-19 01:30N 53°06' E 007°22'0 0.0
2018-Jul-19 01:00N 53°06' E 007°22'0 0.0
2018-Jul-19 00:30N 53°06' E 007°22'0 0.0
2018-Jul-18 23:52N 53°06' E 007°22'0 0.0
2018-Jul-18 23:08N 53°06' E 007°22'0 0.0
2018-Jul-18 22:53N 53°06' E 007°22'0 0.0
2018-Jul-18 22:26N 53°06' E 007°22'15 0.5
2018-Jul-17 12:56N 53°20' E 007°12'0 0.4
2018-Jul-17 11:56N 53°20' E 007°12'1 1.9
2018-Jul-17 11:30N 53°21' E 007°12'0 0.0
2018-Jul-17 11:00N 53°21' E 007°12'0 0.0
2018-Jul-17 10:29N 53°21' E 007°12'0 0.0
2018-Jul-17 09:59N 53°21' E 007°12'0 0.0
2018-Jul-17 09:29N 53°21' E 007°12'0 0.0
2018-Jul-17 08:59N 53°21' E 007°12'0 0.0
2018-Jul-17 08:29N 53°21' E 007°12'0 0.0
2018-Jul-17 07:59N 53°21' E 007°12'0 0.0
2018-Jul-17 07:29N 53°21' E 007°12'0 0.0
2018-Jul-17 06:59N 53°21' E 007°12'0 0.0
2018-Jul-17 06:29N 53°21' E 007°12'0 0.0
2018-Jul-17 05:47N 53°21' E 007°12'0 0.0
2018-Jul-17 05:29N 53°21' E 007°12'0 0.0
2018-Jul-17 04:59N 53°21' E 007°12'0 0.0
2018-Jul-17 04:29N 53°21' E 007°12'0 0.0
2018-Jul-17 03:59N 53°21' E 007°12'0 0.0
2018-Jul-17 03:29N 53°21' E 007°12'0 0.0
2018-Jul-17 02:59N 53°21' E 007°12'0 0.0
2018-Jul-17 02:29N 53°21' E 007°12'0 0.0
2018-Jul-17 01:59N 53°21' E 007°12'0 0.0
2018-Jul-17 01:29N 53°21' E 007°12'0 0.0
2018-Jul-17 00:56N 53°21' E 007°12'0 0.0
2018-Jul-17 00:29N 53°21' E 007°12'0 0.0
2018-Jul-16 23:29N 53°21' E 007°12'0 0.0
2018-Jul-16 22:56N 53°21' E 007°12'0 0.0
2018-Jul-16 22:29N 53°21' E 007°12'0 0.0
2018-Jul-16 21:59N 53°21' E 007°12'0 0.0
2018-Jul-16 21:23N 53°21' E 007°12'0 0.0
2018-Jul-16 20:56N 53°21' E 007°12'0 0.0
2018-Jul-16 20:29N 53°21' E 007°12'0 0.0
2018-Jul-16 19:59N 53°21' E 007°12'0 0.0
2018-Jul-16 19:29N 53°21' E 007°12'0 0.0
2018-Jul-16 18:59N 53°21' E 007°12'0 0.0
2018-Jul-16 18:29N 53°21' E 007°12'0 0.0
2018-Jul-16 17:59N 53°21' E 007°12'0 0.0
2018-Jul-16 17:29N 53°21' E 007°12'0 0.0
2018-Jul-16 16:53N 53°21' E 007°12'0 0.0
2018-Jul-16 16:29N 53°21' E 007°12'0 0.0
2018-Jul-16 15:59N 53°21' E 007°12'0 0.0
2018-Jul-16 15:23N 53°21' E 007°12'0 0.0
2018-Jul-16 14:59N 53°21' E 007°12'0 0.0
2018-Jul-16 14:29N 53°21' E 007°12'0 0.0
2018-Jul-16 13:59N 53°21' E 007°12'0 0.0
2018-Jul-16 13:20N 53°21' E 007°12'0 0.0
2018-Jul-16 12:38N 53°21' E 007°12'0 0.0
2018-Jul-16 12:26N 53°21' E 007°12'0 0.0
2018-Jul-16 11:53N 53°21' E 007°12'0 0.0
2018-Jul-16 11:23N 53°21' E 007°12'0 0.0
2018-Jul-16 10:56N 53°21' E 007°12'0 0.0
2018-Jul-16 10:20N 53°21' E 007°12'0 1.2
2018-Jul-16 09:59N 53°21' E 007°12'0 0.8
2018-Jul-16 09:29N 53°21' E 007°12'0 0.1
2018-Jul-16 08:58N 53°21' E 007°12'0 0.0
2018-Jul-16 08:25N 53°21' E 007°12'0 0.0
2018-Jul-16 07:55N 53°21' E 007°12'0 0.0
2018-Jul-16 07:28N 53°21' E 007°12'0 0.0
2018-Jul-16 06:58N 53°21' E 007°12'0 0.1
2018-Jul-16 06:22N 53°21' E 007°12'0 0.0
2018-Jul-16 05:58N 53°21' E 007°12'0 0.0
2018-Jul-16 05:28N 53°21' E 007°12'0 0.0
2018-Jul-16 04:58N 53°21' E 007°12'0 0.0
2018-Jul-16 04:28N 53°21' E 007°12'0 0.0
2018-Jul-16 03:58N 53°21' E 007°12'0 0.0
2018-Jul-16 03:28N 53°21' E 007°12'0 0.0
2018-Jul-16 02:58N 53°21' E 007°12'0 0.0
2018-Jul-16 02:28N 53°21' E 007°12'0 0.0
2018-Jul-16 01:58N 53°21' E 007°12'0 0.0
2018-Jul-16 01:28N 53°21' E 007°12'0 0.0
2018-Jul-16 00:58N 53°21' E 007°12'0 0.0
2018-Jul-16 00:28N 53°21' E 007°12'0 0.0
2018-Jul-15 23:58N 53°21' E 007°12'0 0.0
2018-Jul-15 23:28N 53°21' E 007°12'0 0.0
2018-Jul-15 22:58N 53°21' E 007°12'0 0.0
2018-Jul-15 22:28N 53°21' E 007°12'0 0.0
2018-Jul-15 21:58N 53°21' E 007°12'0 0.0
2018-Jul-15 21:28N 53°21' E 007°12'0 0.0
2018-Jul-15 20:58N 53°21' E 007°12'0 0.0
2018-Jul-15 20:28N 53°21' E 007°12'0 0.0
2018-Jul-15 19:58N 53°21' E 007°12'0 0.0
2018-Jul-15 19:28N 53°21' E 007°12'0 0.0
2018-Jul-15 18:58N 53°21' E 007°12'0 0.0
2018-Jul-15 18:28N 53°21' E 007°12'0 0.0
2018-Jul-15 17:58N 53°21' E 007°12'0 0.0
2018-Jul-15 17:28N 53°21' E 007°12'0 0.0
2018-Jul-15 16:58N 53°21' E 007°12'0 0.0
2018-Jul-15 16:28N 53°21' E 007°12'0 0.0
2018-Jul-15 15:58N 53°21' E 007°12'0 0.0
2018-Jul-15 15:28N 53°21' E 007°12'0 0.0
2018-Jul-15 14:58N 53°21' E 007°12'0 0.0
2018-Jul-15 14:25N 53°21' E 007°12'0 0.9
2018-Jul-15 13:59N 53°21' E 007°12'0 0.3
2018-Jul-15 13:30N 53°21' E 007°12'0 0.0
2018-Jul-14 21:54N 53°21' E 007°12'0 0.0
2018-Jul-14 21:25N 53°21' E 007°12'0 0.0
2018-Jul-14 20:42N 53°21' E 007°12'0 0.0
2018-Jul-14 20:18N 53°21' E 007°12'0 0.0
2018-Jul-14 19:48N 53°21' E 007°12'0 0.0
2018-Jul-14 19:31N 53°21' E 007°12'0 0.0
2018-Jul-14 18:54N 53°21' E 007°12'0 0.0
2018-Jul-14 18:18N 53°21' E 007°12'0 0.0
2018-Jul-14 17:51N 53°21' E 007°12'0 0.0
2018-Jul-14 17:30N 53°21' E 007°12'0 0.0
2018-Jul-14 07:39N 53°21' E 007°12'0 0.0
2018-Jul-12 14:10N 53°21' E 007°12'0 0.1
2018-Jul-12 14:00N 53°21' E 007°12'0 0.0
2018-Jul-12 13:30N 53°21' E 007°12'1 1.2
2018-Jul-12 13:00N 53°20' E 007°11'13 4.4
2018-Jul-12 10:01N 53°09' E 007°22'0 6.1
2018-Jul-12 09:59N 53°09' E 007°22'3 1.0
2018-Jul-12 06:58N 53°06' E 007°22'0 0.0
2018-Jul-12 06:07N 53°06' E 007°22'0 0.1
2018-Jul-12 06:00N 53°06' E 007°22'0 0.0
2018-Jul-12 05:30N 53°06' E 007°22'0 0.0
2018-Jul-12 05:00N 53°06' E 007°22'0 0.0
2018-Jul-12 04:27N 53°06' E 007°22'0 0.0
2018-Jul-12 01:03N 53°06' E 007°22'0 0.0
2018-Jul-12 00:48N 53°06' E 007°22'0 0.0
2018-Jul-12 00:30N 53°06' E 007°22'0 0.1
2018-Jul-12 00:00N 53°06' E 007°22'0 0.1
2018-Jul-11 23:29N 53°06' E 007°22'0 0.0
2018-Jul-11 22:56N 53°06' E 007°22'2 0.1
2018-Jul-11 08:56N 53°08' E 007°22'13 5.6
2018-Jul-11 06:34N 53°20' E 007°14'110.1
2018-Jul-11 06:30N 53°20' E 007°13'1 1.9
2018-Jul-11 06:00N 53°20' E 007°11'1 1.8
2018-Jul-11 05:30N 53°21' E 007°12'0 0.0
2018-Jul-11 05:00N 53°21' E 007°12'0 0.0
2018-Jul-11 04:29N 53°21' E 007°12'0 0.0
2018-Jul-11 04:01N 53°21' E 007°12'0 0.0
2018-Jul-11 03:31N 53°21' E 007°12'0 0.0
2018-Jul-11 03:01N 53°21' E 007°12'0 0.0
2018-Jul-11 02:30N 53°21' E 007°12'0 0.0
2018-Jul-11 02:00N 53°21' E 007°12'0 0.0
2018-Jul-11 01:30N 53°21' E 007°12'0 0.0
2018-Jul-11 01:00N 53°21' E 007°12'0 0.0
2018-Jul-11 00:31N 53°21' E 007°12'0 0.0
2018-Jul-11 00:01N 53°21' E 007°12'0 0.0
2018-Jul-10 23:31N 53°21' E 007°12'0 0.0
2018-Jul-10 22:59N 53°21' E 007°12'0 0.0
2018-Jul-10 22:31N 53°21' E 007°12'0 0.0
2018-Jul-10 22:01N 53°21' E 007°12'0 0.0
2018-Jul-10 21:30N 53°21' E 007°12'0 0.0
2018-Jul-10 21:00N 53°21' E 007°12'0 0.0
2018-Jul-10 20:30N 53°21' E 007°12'0 0.0
2018-Jul-10 20:01N 53°21' E 007°12'0 0.0
2018-Jul-10 19:30N 53°21' E 007°12'0 0.0
2018-Jul-10 19:00N 53°21' E 007°12'0 0.0
2018-Jul-10 18:30N 53°21' E 007°12'0 0.0
2018-Jul-10 18:01N 53°21' E 007°12'0 0.0
2018-Jul-10 17:31N 53°21' E 007°12'0 0.0
2018-Jul-10 17:00N 53°21' E 007°12'0 0.0
2018-Jul-10 16:30N 53°21' E 007°12'  
Track history (hours):
 
Tides and Currents Weather Stations Pressure Air Temp Water Temp Dewpoint Dewpoint Depression Visibility Wind Speed Wind Dir Waves Ship Positions

Ems Pull

Last reported at 2018-Jul-20 16:21 UTC. Time now 2018-Jul-20 16:30 UTC.
Position N 53°21' E 007°12'.

Length 26 m; draft 4.2 m.

Type: Towing. MMSI: 255805540.

Date/timePositionNaut miles runAvg speedWind from/ knotsBaromVisibWave heightAir tempDewpointWater temp
2018-Jul-20 16:21N 53°21' E 007°12'0 0.0
2018-Jul-20 16:00N 53°21' E 007°12'0 0.0
2018-Jul-20 15:27N 53°21' E 007°12'0 0.0
2018-Jul-20 15:00N 53°21' E 007°12'0 0.0
2018-Jul-20 14:22N 53°21' E 007°12'0 0.0
2018-Jul-20 13:31N 53°21' E 007°12'0 0.0
2018-Jul-20 13:25N 53°21' E 007°12'0 0.0
2018-Jul-20 12:01N 53°21' E 007°12'0 0.0
2018-Jul-20 11:49N 53°21' E 007°12'0 0.0
2018-Jul-20 11:28N 53°21' E 007°12'0 0.0
2018-Jul-20 10:58N 53°21' E 007°12'0 0.0
2018-Jul-20 10:28N 53°21' E 007°12'0 0.0
2018-Jul-20 09:58N 53°21' E 007°12'0 0.0
2018-Jul-20 05:35N 53°21' E 007°12'0 0.0
2018-Jul-20 03:49N 53°21' E 007°12'0 0.0
2018-Jul-20 03:28N 53°21' E 007°12'0 0.0
2018-Jul-20 02:37N 53°21' E 007°12'0 0.0
2018-Jul-20 02:25N 53°21' E 007°12'0 0.0
2018-Jul-19 20:16N 53°21' E 007°12'0 0.2
2018-Jul-19 19:58N 53°21' E 007°12'1 1.4
2018-Jul-19 19:16N 53°20' E 007°11'2 5.6
2018-Jul-19 18:54N 53°20' E 007°14'4 9.3
2018-Jul-19 18:30N 53°19' E 007°20'10 6.3
2018-Jul-19 16:56N 53°09' E 007°23'3 0.3
2018-Jul-19 07:16N 53°06' E 007°22'0 0.0
2018-Jul-19 07:00N 53°06' E 007°22'0 0.0
2018-Jul-19 06:30N 53°06' E 007°22'0 0.0
2018-Jul-19 06:00N 53°06' E 007°22'0 0.0
2018-Jul-19 05:30N 53°06' E 007°22'0 0.0
2018-Jul-19 05:00N 53°06' E 007°22'0 0.0
2018-Jul-19 04:30N 53°06' E 007°22'0 0.0
2018-Jul-19 04:00N 53°06' E 007°22'0 0.0
2018-Jul-19 03:30N 53°06' E 007°22'0 0.0
2018-Jul-19 02:59N 53°06' E 007°22'0 0.0
2018-Jul-19 02:30N 53°06' E 007°22'0 0.1
2018-Jul-19 02:00N 53°06' E 007°22'0 0.1
2018-Jul-19 01:30N 53°06' E 007°22'0 0.0
2018-Jul-19 01:00N 53°06' E 007°22'0 0.0
2018-Jul-19 00:30N 53°06' E 007°22'0 0.0
2018-Jul-18 23:52N 53°06' E 007°22'0 0.0
2018-Jul-18 23:08N 53°06' E 007°22'0 0.0
2018-Jul-18 22:53N 53°06' E 007°22'0 0.0
2018-Jul-18 22:26N 53°06' E 007°22'15 0.5
2018-Jul-17 12:56N 53°20' E 007°12'0 0.4
2018-Jul-17 11:56N 53°20' E 007°12'1 1.9
2018-Jul-17 11:30N 53°21' E 007°12'0 0.0
2018-Jul-17 11:00N 53°21' E 007°12'0 0.0
2018-Jul-17 10:29N 53°21' E 007°12'0 0.0
2018-Jul-17 09:59N 53°21' E 007°12'0 0.0
2018-Jul-17 09:29N 53°21' E 007°12'0 0.0
2018-Jul-17 08:59N 53°21' E 007°12'0 0.0
2018-Jul-17 08:29N 53°21' E 007°12'0 0.0
2018-Jul-17 07:59N 53°21' E 007°12'0 0.0
2018-Jul-17 07:29N 53°21' E 007°12'0 0.0
2018-Jul-17 06:59N 53°21' E 007°12'0 0.0
2018-Jul-17 06:29N 53°21' E 007°12'0 0.0
2018-Jul-17 05:47N 53°21' E 007°12'0 0.0
2018-Jul-17 05:29N 53°21' E 007°12'0 0.0
2018-Jul-17 04:59N 53°21' E 007°12'0 0.0
2018-Jul-17 04:29N 53°21' E 007°12'0 0.0
2018-Jul-17 03:59N 53°21' E 007°12'0 0.0
2018-Jul-17 03:29N 53°21' E 007°12'0 0.0
2018-Jul-17 02:59N 53°21' E 007°12'0 0.0
2018-Jul-17 02:29N 53°21' E 007°12'0 0.0
2018-Jul-17 01:59N 53°21' E 007°12'0 0.0
2018-Jul-17 01:29N 53°21' E 007°12'0 0.0
2018-Jul-17 00:56N 53°21' E 007°12'0 0.0
2018-Jul-17 00:29N 53°21' E 007°12'0 0.0
2018-Jul-16 23:29N 53°21' E 007°12'0 0.0
2018-Jul-16 22:56N 53°21' E 007°12'0 0.0
2018-Jul-16 22:29N 53°21' E 007°12'0 0.0
2018-Jul-16 21:59N 53°21' E 007°12'0 0.0
2018-Jul-16 21:23N 53°21' E 007°12'0 0.0
2018-Jul-16 20:56N 53°21' E 007°12'0 0.0
2018-Jul-16 20:29N 53°21' E 007°12'0 0.0
2018-Jul-16 19:59N 53°21' E 007°12'0 0.0
2018-Jul-16 19:29N 53°21' E 007°12'0 0.0
2018-Jul-16 18:59N 53°21' E 007°12'0 0.0
2018-Jul-16 18:29N 53°21' E 007°12'0 0.0
2018-Jul-16 17:59N 53°21' E 007°12'0 0.0
2018-Jul-16 17:29N 53°21' E 007°12'0 0.0
2018-Jul-16 16:53N 53°21' E 007°12'0 0.0
2018-Jul-16 16:29N 53°21' E 007°12'0 0.0
2018-Jul-16 15:59N 53°21' E 007°12'0 0.0
2018-Jul-16 15:23N 53°21' E 007°12'0 0.0
2018-Jul-16 14:59N 53°21' E 007°12'0 0.0
2018-Jul-16 14:29N 53°21' E 007°12'0 0.0
2018-Jul-16 13:59N 53°21' E 007°12'0 0.0
2018-Jul-16 13:20N 53°21' E 007°12'0 0.0
2018-Jul-16 12:38N 53°21' E 007°12'0 0.0
2018-Jul-16 12:26N 53°21' E 007°12'0 0.0
2018-Jul-16 11:53N 53°21' E 007°12'0 0.0
2018-Jul-16 11:23N 53°21' E 007°12'0 0.0
2018-Jul-16 10:56N 53°21' E 007°12'0 0.0
2018-Jul-16 10:20N 53°21' E 007°12'0 1.2
2018-Jul-16 09:59N 53°21' E 007°12'0 0.8
2018-Jul-16 09:29N 53°21' E 007°12'0 0.1
2018-Jul-16 08:58N 53°21' E 007°12'0 0.0
2018-Jul-16 08:25N 53°21' E 007°12'0 0.0
2018-Jul-16 07:55N 53°21' E 007°12'0 0.0
2018-Jul-16 07:28N 53°21' E 007°12'0 0.0
2018-Jul-16 06:58N 53°21' E 007°12'0 0.1
2018-Jul-16 06:22N 53°21' E 007°12'0 0.0
2018-Jul-16 05:58N 53°21' E 007°12'0 0.0
2018-Jul-16 05:28N 53°21' E 007°12'0 0.0
2018-Jul-16 04:58N 53°21' E 007°12'0 0.0
2018-Jul-16 04:28N 53°21' E 007°12'0 0.0
2018-Jul-16 03:58N 53°21' E 007°12'0 0.0
2018-Jul-16 03:28N 53°21' E 007°12'0 0.0
2018-Jul-16 02:58N 53°21' E 007°12'0 0.0
2018-Jul-16 02:28N 53°21' E 007°12'0 0.0
2018-Jul-16 01:58N 53°21' E 007°12'0 0.0
2018-Jul-16 01:28N 53°21' E 007°12'0 0.0
2018-Jul-16 00:58N 53°21' E 007°12'0 0.0
2018-Jul-16 00:28N 53°21' E 007°12'0 0.0
2018-Jul-15 23:58N 53°21' E 007°12'0 0.0
2018-Jul-15 23:28N 53°21' E 007°12'0 0.0
2018-Jul-15 22:58N 53°21' E 007°12'0 0.0
2018-Jul-15 22:28N 53°21' E 007°12'0 0.0
2018-Jul-15 21:58N 53°21' E 007°12'0 0.0
2018-Jul-15 21:28N 53°21' E 007°12'0 0.0
2018-Jul-15 20:58N 53°21' E 007°12'0 0.0
2018-Jul-15 20:28N 53°21' E 007°12'0 0.0
2018-Jul-15 19:58N 53°21' E 007°12'0 0.0
2018-Jul-15 19:28N 53°21' E 007°12'0 0.0
2018-Jul-15 18:58N 53°21' E 007°12'0 0.0
2018-Jul-15 18:28N 53°21' E 007°12'0 0.0
2018-Jul-15 17:58N 53°21' E 007°12'0 0.0
2018-Jul-15 17:28N 53°21' E 007°12'0 0.0
2018-Jul-15 16:58N 53°21' E 007°12'0 0.0
2018-Jul-15 16:28N 53°21' E 007°12'0 0.0
2018-Jul-15 15:58N 53°21' E 007°12'0 0.0
2018-Jul-15 15:28N 53°21' E 007°12'0 0.0
2018-Jul-15 14:58N 53°21' E 007°12'0 0.0
2018-Jul-15 14:25N 53°21' E 007°12'0 0.9
2018-Jul-15 13:59N 53°21' E 007°12'0 0.3
2018-Jul-15 13:30N 53°21' E 007°12'0 0.0
2018-Jul-14 21:54N 53°21' E 007°12'0 0.0
2018-Jul-14 21:25N 53°21' E 007°12'0 0.0
2018-Jul-14 20:42N 53°21' E 007°12'0 0.0
2018-Jul-14 20:18N 53°21' E 007°12'0 0.0
2018-Jul-14 19:48N 53°21' E 007°12'0 0.0
2018-Jul-14 19:31N 53°21' E 007°12'0 0.0
2018-Jul-14 18:54N 53°21' E 007°12'0 0.0
2018-Jul-14 18:18N 53°21' E 007°12'0 0.0
2018-Jul-14 17:51N 53°21' E 007°12'0 0.0
2018-Jul-14 17:30N 53°21' E 007°12'0 0.0
2018-Jul-14 07:39N 53°21' E 007°12'0 0.0
2018-Jul-12 14:10N 53°21' E 007°12'0 0.1
2018-Jul-12 14:00N 53°21' E 007°12'0 0.0
2018-Jul-12 13:30N 53°21' E 007°12'1 1.2
2018-Jul-12 13:00N 53°20' E 007°11'13 4.4
2018-Jul-12 10:01N 53°09' E 007°22'0 6.1
2018-Jul-12 09:59N 53°09' E 007°22'3 1.0
2018-Jul-12 06:58N 53°06' E 007°22'0 0.0
2018-Jul-12 06:07N 53°06' E 007°22'0 0.1
2018-Jul-12 06:00N 53°06' E 007°22'0 0.0
2018-Jul-12 05:30N 53°06' E 007°22'0 0.0
2018-Jul-12 05:00N 53°06' E 007°22'0 0.0
2018-Jul-12 04:27N 53°06' E 007°22'0 0.0
2018-Jul-12 01:03N 53°06' E 007°22'0 0.0
2018-Jul-12 00:48N 53°06' E 007°22'0 0.0
2018-Jul-12 00:30N 53°06' E 007°22'0 0.1
2018-Jul-12 00:00N 53°06' E 007°22'0 0.1
2018-Jul-11 23:29N 53°06' E 007°22'0 0.0
2018-Jul-11 22:56N 53°06' E 007°22'2 0.1
2018-Jul-11 08:56N 53°08' E 007°22'13 5.6
2018-Jul-11 06:34N 53°20' E 007°14'110.1
2018-Jul-11 06:30N 53°20' E 007°13'1 1.9
2018-Jul-11 06:00N 53°20' E 007°11'1 1.8
2018-Jul-11 05:30N 53°21' E 007°12'0 0.0
2018-Jul-11 05:00N 53°21' E 007°12'0 0.0
2018-Jul-11 04:29N 53°21' E 007°12'0 0.0
2018-Jul-11 04:01N 53°21' E 007°12'0 0.0
2018-Jul-11 03:31N 53°21' E 007°12'0 0.0
2018-Jul-11 03:01N 53°21' E 007°12'0 0.0
2018-Jul-11 02:30N 53°21' E 007°12'0 0.0
2018-Jul-11 02:00N 53°21' E 007°12'0 0.0
2018-Jul-11 01:30N 53°21' E 007°12'0 0.0
2018-Jul-11 01:00N 53°21' E 007°12'0 0.0
2018-Jul-11 00:31N 53°21' E 007°12'0 0.0
2018-Jul-11 00:01N 53°21' E 007°12'0 0.0
2018-Jul-10 23:31N 53°21' E 007°12'0 0.0
2018-Jul-10 22:59N 53°21' E 007°12'0 0.0
2018-Jul-10 22:31N 53°21' E 007°12'0 0.0
2018-Jul-10 22:01N 53°21' E 007°12'0 0.0
2018-Jul-10 21:30N 53°21' E 007°12'0 0.0
2018-Jul-10 21:00N 53°21' E 007°12'0 0.0
2018-Jul-10 20:30N 53°21' E 007°12'0 0.0
2018-Jul-10 20:01N 53°21' E 007°12'0 0.0
2018-Jul-10 19:30N 53°21' E 007°12'0 0.0
2018-Jul-10 19:00N 53°21' E 007°12'0 0.0
2018-Jul-10 18:30N 53°21' E 007°12'0 0.0
2018-Jul-10 18:01N 53°21' E 007°12'0 0.0
2018-Jul-10 17:31N 53°21' E 007°12'0 0.0
2018-Jul-10 17:00N 53°21' E 007°12'0 0.0
2018-Jul-10 16:30N 53°21' E 007°12'  

Dump ship's entire track history